sensor_id;sensor_type;location;lat;lon;timestamp;pressure;altitude;pressure_sealevel;temperature;humidity
42633;BME280;28261;53.304;-6.284;2023-04-09T00:00:31;101535.88;;;9.35;67.39
42633;BME280;28261;53.304;-6.284;2023-04-09T00:02:34;101544.81;;;9.32;67.17
42633;BME280;28261;53.304;-6.284;2023-04-09T00:04:37;101536.13;;;9.30;67.94
42633;BME280;28261;53.304;-6.284;2023-04-09T00:06:41;101524.69;;;9.29;67.54
42633;BME280;28261;53.304;-6.284;2023-04-09T00:08:46;101515.03;;;9.28;67.38
42633;BME280;28261;53.304;-6.284;2023-04-09T00:10:49;101501.09;;;9.25;67.34
42633;BME280;28261;53.304;-6.284;2023-04-09T00:12:53;101488.03;;;9.22;67.82
42633;BME280;28261;53.304;-6.284;2023-04-09T00:14:56;101487.22;;;9.20;67.37
42633;BME280;28261;53.304;-6.284;2023-04-09T00:17:00;101482.94;;;9.17;67.02
42633;BME280;28261;53.304;-6.284;2023-04-09T00:19:03;101481.16;;;9.18;67.22
42633;BME280;28261;53.304;-6.284;2023-04-09T00:21:07;101478.53;;;9.18;66.32
42633;BME280;28261;53.304;-6.284;2023-04-09T00:23:10;101476.63;;;9.20;66.32
42633;BME280;28261;53.304;-6.284;2023-04-09T00:25:15;101478.53;;;9.18;66.54
42633;BME280;28261;53.304;-6.284;2023-04-09T00:27:18;101482.16;;;9.15;67.27
42633;BME280;28261;53.304;-6.284;2023-04-09T00:29:22;101473.50;;;9.11;68.31
42633;BME280;28261;53.304;-6.284;2023-04-09T00:31:25;101484.25;;;9.08;69.05
42633;BME280;28261;53.304;-6.284;2023-04-09T00:33:29;101486.13;;;9.06;70.06
42633;BME280;28261;53.304;-6.284;2023-04-09T00:35:32;101488.97;;;9.02;70.94
42633;BME280;28261;53.304;-6.284;2023-04-09T00:37:36;101489.28;;;8.95;71.53
42633;BME280;28261;53.304;-6.284;2023-04-09T00:39:39;101492.13;;;8.91;72.62
42633;BME280;28261;53.304;-6.284;2023-04-09T00:41:44;101494.09;;;8.87;72.67
42633;BME280;28261;53.304;-6.284;2023-04-09T00:43:48;101488.22;;;8.80;73.34
42633;BME280;28261;53.304;-6.284;2023-04-09T00:45:51;101488.31;;;8.79;73.99
42633;BME280;28261;53.304;-6.284;2023-04-09T00:47:55;101477.00;;;8.75;74.32
42633;BME280;28261;53.304;-6.284;2023-04-09T00:50:00;101467.44;;;8.73;75.03
42633;BME280;28261;53.304;-6.284;2023-04-09T00:52:04;101463.94;;;8.72;74.88
42633;BME280;28261;53.304;-6.284;2023-04-09T00:54:07;101465.63;;;8.73;75.65
42633;BME280;28261;53.304;-6.284;2023-04-09T00:56:12;101469.84;;;8.77;75.23
42633;BME280;28261;53.304;-6.284;2023-04-09T00:58:18;101469.00;;;8.77;75.52
42633;BME280;28261;53.304;-6.284;2023-04-09T01:00:22;101463.63;;;8.78;75.16
42633;BME280;28261;53.304;-6.284;2023-04-09T01:02:25;101451.22;;;8.80;75.79
42633;BME280;28261;53.304;-6.284;2023-04-09T01:04:29;101445.69;;;8.85;75.07
42633;BME280;28261;53.304;-6.284;2023-04-09T01:06:38;101427.28;;;8.84;75.29
42633;BME280;28261;53.304;-6.284;2023-04-09T01:08:50;101437.84;;;8.84;74.76
42633;BME280;28261;53.304;-6.284;2023-04-09T01:11:06;101433.41;;;8.84;74.40
42633;BME280;28261;53.304;-6.284;2023-04-09T01:13:19;101434.28;;;8.85;73.71
42633;BME280;28261;53.304;-6.284;2023-04-09T01:15:25;101422.06;;;8.82;73.89
42633;BME280;28261;53.304;-6.284;2023-04-09T01:17:34;101430.84;;;8.83;73.43
42633;BME280;28261;53.304;-6.284;2023-04-09T01:19:47;101423.81;;;8.81;73.84
42633;BME280;28261;53.304;-6.284;2023-04-09T01:21:53;101413.25;;;8.81;74.16
42633;BME280;28261;53.304;-6.284;2023-04-09T01:24:08;101409.75;;;8.81;75.05
42633;BME280;28261;53.304;-6.284;2023-04-09T01:26:25;101401.84;;;8.81;74.02
42633;BME280;28261;53.304;-6.284;2023-04-09T01:28:41;101400.19;;;8.78;75.44
42633;BME280;28261;53.304;-6.284;2023-04-09T01:30:48;101398.34;;;8.80;75.02
42633;BME280;28261;53.304;-6.284;2023-04-09T01:32:53;101411.50;;;8.82;74.49
42633;BME280;28261;53.304;-6.284;2023-04-09T01:34:58;101402.69;;;8.81;73.98
42633;BME280;28261;53.304;-6.284;2023-04-09T01:37:03;101399.09;;;8.83;74.10
42633;BME280;28261;53.304;-6.284;2023-04-09T01:39:09;101378.69;;;8.86;73.06
42633;BME280;28261;53.304;-6.284;2023-04-09T01:41:16;101396.94;;;8.91;72.40
42633;BME280;28261;53.304;-6.284;2023-04-09T01:43:20;101402.16;;;8.92;70.68
42633;BME280;28261;53.304;-6.284;2023-04-09T01:45:26;101396.66;;;8.97;71.03
42633;BME280;28261;53.304;-6.284;2023-04-09T01:47:29;101387.84;;;8.96;71.41
42633;BME280;28261;53.304;-6.284;2023-04-09T01:49:33;101388.72;;;8.97;71.83
42633;BME280;28261;53.304;-6.284;2023-04-09T01:51:37;101388.72;;;8.97;71.35
42633;BME280;28261;53.304;-6.284;2023-04-09T01:53:42;101383.34;;;8.98;71.46
42633;BME280;28261;53.304;-6.284;2023-04-09T01:55:45;101361.34;;;8.98;71.74
42633;BME280;28261;53.304;-6.284;2023-04-09T01:57:49;101366.09;;;8.91;72.56
42633;BME280;28261;53.304;-6.284;2023-04-09T01:59:53;101361.66;;;8.92;72.56
42633;BME280;28261;53.304;-6.284;2023-04-09T02:02:00;101366.13;;;8.90;72.76
42633;BME280;28261;53.304;-6.284;2023-04-09T02:04:09;101349.34;;;8.91;72.62
42633;BME280;28261;53.304;-6.284;2023-04-09T02:06:24;101327.28;;;8.92;72.14
42633;BME280;28261;53.304;-6.284;2023-04-09T02:08:30;101313.03;;;8.94;70.85
42633;BME280;28261;53.304;-6.284;2023-04-09T02:10:37;101308.59;;;8.95;71.44
42633;BME280;28261;53.304;-6.284;2023-04-09T02:12:44;101308.59;;;8.95;70.61
42633;BME280;28261;53.304;-6.284;2023-04-09T02:14:51;101289.16;;;8.96;70.67
42633;BME280;28261;53.304;-6.284;2023-04-09T02:16:55;101297.09;;;8.96;70.27
42633;BME280;28261;53.304;-6.284;2023-04-09T02:19:01;101304.19;;;8.95;70.10
42633;BME280;28261;53.304;-6.284;2023-04-09T02:21:04;101306.91;;;8.94;70.07
42633;BME280;28261;53.304;-6.284;2023-04-09T02:23:08;101324.47;;;8.95;70.07
42633;BME280;28261;53.304;-6.284;2023-04-09T02:25:11;101332.25;;;8.98;70.08
42633;BME280;28261;53.304;-6.284;2023-04-09T02:27:14;101335.03;;;8.95;69.87
42633;BME280;28261;53.304;-6.284;2023-04-09T02:29:18;101324.72;;;8.90;71.45
42633;BME280;28261;53.304;-6.284;2023-04-09T02:31:21;101319.63;;;8.86;72.19
42633;BME280;28261;53.304;-6.284;2023-04-09T02:33:25;101308.59;;;8.77;72.75
42633;BME280;28261;53.304;-6.284;2023-04-09T02:35:30;101318.69;;;8.69;72.75
42633;BME280;28261;53.304;-6.284;2023-04-09T02:37:33;101331.16;;;8.67;73.79
42633;BME280;28261;53.304;-6.284;2023-04-09T02:39:37;101336.28;;;8.70;73.34
42633;BME280;28261;53.304;-6.284;2023-04-09T02:41:40;101328.25;;;8.72;74.00
42633;BME280;28261;53.304;-6.284;2023-04-09T02:43:44;101325.53;;;8.73;73.47
42633;BME280;28261;53.304;-6.284;2023-04-09T02:45:47;101309.84;;;8.70;73.40
42633;BME280;28261;53.304;-6.284;2023-04-09T02:47:50;101317.94;;;8.67;74.13
42633;BME280;28261;53.304;-6.284;2023-04-09T02:49:54;101322.22;;;8.70;74.13
42633;BME280;28261;53.304;-6.284;2023-04-09T02:51:59;101310.63;;;8.72;74.63
42633;BME280;28261;53.304;-6.284;2023-04-09T02:54:03;101310.47;;;8.75;73.68
42633;BME280;28261;53.304;-6.284;2023-04-09T02:56:06;101313.13;;;8.75;73.19
42633;BME280;28261;53.304;-6.284;2023-04-09T02:58:10;101317.41;;;8.78;73.49
42633;BME280;28261;53.304;-6.284;2023-04-09T03:00:13;101309.47;;;8.78;74.15
42633;BME280;28261;53.304;-6.284;2023-04-09T03:02:17;101293.53;;;8.79;73.07
42633;BME280;28261;53.304;-6.284;2023-04-09T03:04:21;101313.81;;;8.79;73.00
42633;BME280;28261;53.304;-6.284;2023-04-09T03:06:24;101318.94;;;8.82;72.92
42633;BME280;28261;53.304;-6.284;2023-04-09T03:08:29;101310.84;;;8.85;72.49
42633;BME280;28261;53.304;-6.284;2023-04-09T03:10:32;101294.00;;;8.88;72.38
42633;BME280;28261;53.304;-6.284;2023-04-09T03:12:36;101287.84;;;8.87;72.45
42633;BME280;28261;53.304;-6.284;2023-04-09T03:14:39;101276.25;;;8.90;72.11
42633;BME280;28261;53.304;-6.284;2023-04-09T03:16:42;101277.81;;;8.94;71.92
42633;BME280;28261;53.304;-6.284;2023-04-09T03:18:46;101272.22;;;9.00;70.87
42633;BME280;28261;53.304;-6.284;2023-04-09T03:20:49;101273.00;;;9.02;70.69
42633;BME280;28261;53.304;-6.284;2023-04-09T03:22:52;101279.03;;;9.04;70.75
42633;BME280;28261;53.304;-6.284;2023-04-09T03:25:06;101273.28;;;9.13;68.59
42633;BME280;28261;53.304;-6.284;2023-04-09T03:27:10;101271.25;;;9.19;68.78
42633;BME280;28261;53.304;-6.284;2023-04-09T03:29:13;101265.00;;;9.20;68.72
42633;BME280;28261;53.304;-6.284;2023-04-09T03:31:18;101252.56;;;9.22;68.74
42633;BME280;28261;53.304;-6.284;2023-04-09T03:33:21;101242.59;;;9.27;67.61
42633;BME280;28261;53.304;-6.284;2023-04-09T03:35:28;101239.53;;;9.35;68.25
42633;BME280;28261;53.304;-6.284;2023-04-09T03:37:33;101239.78;;;9.30;68.93
42633;BME280;28261;53.304;-6.284;2023-04-09T03:39:38;101248.81;;;9.26;69.74
42633;BME280;28261;53.304;-6.284;2023-04-09T03:41:43;101243.00;;;9.19;70.96
42633;BME280;28261;53.304;-6.284;2023-04-09T03:43:49;101236.16;;;9.15;71.81
42633;BME280;28261;53.304;-6.284;2023-04-09T03:45:57;101242.72;;;9.08;72.74
42633;BME280;28261;53.304;-6.284;2023-04-09T03:48:01;101246.56;;;9.02;73.88
42633;BME280;28261;53.304;-6.284;2023-04-09T03:50:06;101234.41;;;8.98;74.20
42633;BME280;28261;53.304;-6.284;2023-04-09T03:52:20;101230.28;;;8.92;74.97
42633;BME280;28261;53.304;-6.284;2023-04-09T03:54:32;101227.72;;;8.91;74.34
42633;BME280;28261;53.304;-6.284;2023-04-09T03:56:39;101229.44;;;8.92;74.71
42633;BME280;28261;53.304;-6.284;2023-04-09T03:58:47;101228.50;;;8.93;74.44
42633;BME280;28261;53.304;-6.284;2023-04-09T04:00:52;101234.09;;;8.87;75.75
42633;BME280;28261;53.304;-6.284;2023-04-09T04:03:24;101222.78;;;8.85;76.33
42633;BME280;28261;53.304;-6.284;2023-04-09T04:05:42;101221.06;;;8.84;76.38
42633;BME280;28261;53.304;-6.284;2023-04-09T04:07:48;101230.78;;;8.83;76.55
42633;BME280;28261;53.304;-6.284;2023-04-09T04:09:59;101221.81;;;8.86;77.20
42633;BME280;28261;53.304;-6.284;2023-04-09T04:12:03;101220.34;;;8.80;77.87
42633;BME280;28261;53.304;-6.284;2023-04-09T04:14:34;101211.88;;;8.73;78.82
42633;BME280;28261;53.304;-6.284;2023-04-09T04:16:49;101201.38;;;8.72;78.32
42633;BME280;28261;53.304;-6.284;2023-04-09T04:18:55;101202.09;;;8.75;78.05
42633;BME280;28261;53.304;-6.284;2023-04-09T04:20:59;101200.19;;;8.77;78.83
42633;BME280;28261;53.304;-6.284;2023-04-09T04:23:03;101192.34;;;8.76;79.08
42633;BME280;28261;53.304;-6.284;2023-04-09T04:25:09;101193.22;;;8.76;79.20
42633;BME280;28261;53.304;-6.284;2023-04-09T04:27:13;101195.09;;;8.74;80.12
42633;BME280;28261;53.304;-6.284;2023-04-09T04:29:16;101202.25;;;8.72;80.16
42633;BME280;28261;53.304;-6.284;2023-04-09T04:31:34;101187.56;;;8.67;80.82
42633;BME280;28261;53.304;-6.284;2023-04-09T04:33:40;101188.88;;;8.58;81.17
42633;BME280;28261;53.304;-6.284;2023-04-09T04:35:47;101175.84;;;8.55;81.64
42633;BME280;28261;53.304;-6.284;2023-04-09T04:38:11;101186.50;;;8.53;82.38
42633;BME280;28261;53.304;-6.284;2023-04-09T04:40:14;101172.72;;;8.46;82.46
42633;BME280;28261;53.304;-6.284;2023-04-09T04:42:18;101167.88;;;8.37;83.39
42633;BME280;28261;53.304;-6.284;2023-04-09T04:44:22;101192.66;;;8.35;84.12
42633;BME280;28261;53.304;-6.284;2023-04-09T04:46:34;101179.38;;;8.36;83.61
42633;BME280;28261;53.304;-6.284;2023-04-09T04:48:38;101173.25;;;8.36;84.61
42633;BME280;28261;53.304;-6.284;2023-04-09T04:50:42;101177.81;;;8.32;85.11
42633;BME280;28261;53.304;-6.284;2023-04-09T04:52:45;101178.06;;;8.27;85.17
42633;BME280;28261;53.304;-6.284;2023-04-09T04:54:49;101174.78;;;8.22;85.60
42633;BME280;28261;53.304;-6.284;2023-04-09T04:56:56;101180.16;;;8.21;86.66
42633;BME280;28261;53.304;-6.284;2023-04-09T04:59:12;101162.75;;;8.17;87.40
42633;BME280;28261;53.304;-6.284;2023-04-09T05:01:27;101168.94;;;8.16;87.77
42633;BME280;28261;53.304;-6.284;2023-04-09T05:03:32;101167.22;;;8.14;87.91
42633;BME280;28261;53.304;-6.284;2023-04-09T05:05:43;101162.75;;;8.17;87.83
42633;BME280;28261;53.304;-6.284;2023-04-09T05:07:47;101175.09;;;8.16;87.60
42633;BME280;28261;53.304;-6.284;2023-04-09T05:09:51;101155.81;;;8.14;88.60
42633;BME280;28261;53.304;-6.284;2023-04-09T05:11:55;101150.53;;;8.14;88.63
42633;BME280;28261;53.304;-6.284;2023-04-09T05:13:59;101153.19;;;8.14;89.35
42633;BME280;28261;53.304;-6.284;2023-04-09T05:16:02;101151.47;;;8.13;89.30
42633;BME280;28261;53.304;-6.284;2023-04-09T05:18:07;101152.47;;;8.10;89.40
42633;BME280;28261;53.304;-6.284;2023-04-09T05:20:12;101154.19;;;8.11;88.96
42633;BME280;28261;53.304;-6.284;2023-04-09T05:22:42;101160.25;;;8.13;89.50
42633;BME280;28261;53.304;-6.284;2023-04-09T05:24:45;101145.50;;;8.09;89.34
42633;BME280;28261;53.304;-6.284;2023-04-09T05:26:49;101146.28;;;8.11;90.13
42633;BME280;28261;53.304;-6.284;2023-04-09T05:28:53;101161.34;;;8.09;89.61
42633;BME280;28261;53.304;-6.284;2023-04-09T05:30:57;101159.63;;;8.08;90.44
42633;BME280;28261;53.304;-6.284;2023-04-09T05:33:01;101146.44;;;8.08;90.11
42633;BME280;28261;53.304;-6.284;2023-04-09T05:35:06;101149.06;;;8.08;90.68
42633;BME280;28261;53.304;-6.284;2023-04-09T05:37:15;101146.50;;;8.07;90.83
42633;BME280;28261;53.304;-6.284;2023-04-09T05:39:23;101144.72;;;8.07;90.64
42633;BME280;28261;53.304;-6.284;2023-04-09T05:41:27;101139.44;;;8.07;90.76
42633;BME280;28261;53.304;-6.284;2023-04-09T05:43:54;101132.59;;;8.03;91.16
42633;BME280;28261;53.304;-6.284;2023-04-09T05:46:00;101130.66;;;8.07;90.99
42633;BME280;28261;53.304;-6.284;2023-04-09T05:48:04;101130.81;;;8.04;91.47
42633;BME280;28261;53.304;-6.284;2023-04-09T05:50:09;101123.75;;;8.04;91.44
42633;BME280;28261;53.304;-6.284;2023-04-09T05:52:15;101130.81;;;8.04;91.50
42633;BME280;28261;53.304;-6.284;2023-04-09T05:54:18;101122.97;;;8.02;91.62
42633;BME280;28261;53.304;-6.284;2023-04-09T05:56:22;101121.09;;;8.04;91.63
42633;BME280;28261;53.304;-6.284;2023-04-09T05:58:29;101119.41;;;8.03;92.22
42633;BME280;28261;53.304;-6.284;2023-04-09T06:00:33;101122.97;;;8.02;92.20
42633;BME280;28261;53.304;-6.284;2023-04-09T06:02:38;101120.94;;;8.07;92.45
42633;BME280;28261;53.304;-6.284;2023-04-09T06:04:41;101113.94;;;8.06;92.28
42633;BME280;28261;53.304;-6.284;2023-04-09T06:06:47;101114.81;;;8.07;92.37
42633;BME280;28261;53.304;-6.284;2023-04-09T06:08:52;101121.09;;;8.04;92.06
42633;BME280;28261;53.304;-6.284;2023-04-09T06:10:55;101126.22;;;8.07;92.35
42633;BME280;28261;53.304;-6.284;2023-04-09T06:12:59;101126.06;;;8.10;92.57
42633;BME280;28261;53.304;-6.284;2023-04-09T06:15:03;101135.53;;;8.14;92.42
42633;BME280;28261;53.304;-6.284;2023-04-09T06:17:07;101140.78;;;8.16;91.87
42633;BME280;28261;53.304;-6.284;2023-04-09T06:19:10;101130.88;;;8.20;91.97
42633;BME280;28261;53.304;-6.284;2023-04-09T06:21:13;101137.97;;;8.19;91.63
42633;BME280;28261;53.304;-6.284;2023-04-09T06:23:17;101136.19;;;8.20;92.01
42633;BME280;28261;53.304;-6.284;2023-04-09T06:25:22;101141.28;;;8.23;91.68
42633;BME280;28261;53.304;-6.284;2023-04-09T06:27:25;101146.28;;;8.29;91.96
42633;BME280;28261;53.304;-6.284;2023-04-09T06:29:29;101137.97;;;8.37;91.09
42633;BME280;28261;53.304;-6.284;2023-04-09T06:31:32;101127.81;;;8.46;90.98
42633;BME280;28261;53.304;-6.284;2023-04-09T06:33:36;101129.53;;;8.48;90.94
42633;BME280;28261;53.304;-6.284;2023-04-09T06:35:39;101122.63;;;8.45;91.13
42633;BME280;28261;53.304;-6.284;2023-04-09T06:37:42;101109.47;;;8.43;91.83
42633;BME280;28261;53.304;-6.284;2023-04-09T06:39:46;101125.25;;;8.45;90.69
42633;BME280;28261;53.304;-6.284;2023-04-09T06:42:03;101118.09;;;8.47;90.93
42633;BME280;28261;53.304;-6.284;2023-04-09T06:44:13;101117.16;;;8.48;90.84
42633;BME280;28261;53.304;-6.284;2023-04-09T06:46:17;101110.06;;;8.49;90.64
42633;BME280;28261;53.304;-6.284;2023-04-09T06:48:21;101113.69;;;8.48;91.01
42633;BME280;28261;53.304;-6.284;2023-04-09T06:50:25;101111.97;;;8.46;91.89
42633;BME280;28261;53.304;-6.284;2023-04-09T06:52:29;101106.75;;;8.45;91.71
42633;BME280;28261;53.304;-6.284;2023-04-09T06:54:33;101101.53;;;8.43;92.21
42633;BME280;28261;53.304;-6.284;2023-04-09T06:56:36;101102.38;;;8.44;93.02
42633;BME280;28261;53.304;-6.284;2023-04-09T06:58:41;101096.94;;;8.47;92.83
42633;BME280;28261;53.304;-6.284;2023-04-09T07:00:44;101094.13;;;8.50;92.53
42633;BME280;28261;53.304;-6.284;2023-04-09T07:02:48;101089.03;;;8.47;92.80
42633;BME280;28261;53.304;-6.284;2023-04-09T07:04:52;101086.22;;;8.50;92.70
42633;BME280;28261;53.304;-6.284;2023-04-09T07:06:55;101090.66;;;8.50;93.33
42633;BME280;28261;53.304;-6.284;2023-04-09T07:09:00;101083.53;;;8.52;92.50
42633;BME280;28261;53.304;-6.284;2023-04-09T07:11:03;101063.75;;;8.59;93.30
42633;BME280;28261;53.304;-6.284;2023-04-09T07:13:07;101056.44;;;8.64;92.77
42633;BME280;28261;53.304;-6.284;2023-04-09T07:15:11;101062.47;;;8.66;92.94
42633;BME280;28261;53.304;-6.284;2023-04-09T07:17:15;101053.44;;;8.70;92.37
42633;BME280;28261;53.304;-6.284;2023-04-09T07:19:18;101047.22;;;8.71;92.11
42633;BME280;28261;53.304;-6.284;2023-04-09T07:21:22;101037.34;;;8.75;91.84
42633;BME280;28261;53.304;-6.284;2023-04-09T07:23:25;101041.59;;;8.77;92.53
42633;BME280;28261;53.304;-6.284;2023-04-09T07:25:28;101027.38;;;8.80;92.14
42633;BME280;28261;53.304;-6.284;2023-04-09T07:27:32;101039.91;;;8.76;92.36
42633;BME280;28261;53.304;-6.284;2023-04-09T07:29:35;101030.19;;;8.77;92.25
42633;BME280;28261;53.304;-6.284;2023-04-09T07:31:40;101025.81;;;8.76;92.62
42633;BME280;28261;53.304;-6.284;2023-04-09T07:33:43;101022.94;;;8.80;92.77
42633;BME280;28261;53.304;-6.284;2023-04-09T07:35:47;101027.28;;;8.81;92.98
42633;BME280;28261;53.304;-6.284;2023-04-09T07:37:50;101013.13;;;8.83;92.14
42633;BME280;28261;53.304;-6.284;2023-04-09T07:39:54;101003.91;;;8.90;92.02
42633;BME280;28261;53.304;-6.284;2023-04-09T07:41:57;100990.28;;;8.97;92.54
42633;BME280;28261;53.304;-6.284;2023-04-09T07:44:04;100989.94;;;9.04;92.00
42633;BME280;28261;53.304;-6.284;2023-04-09T07:46:08;100986.28;;;9.06;91.97
42633;BME280;28261;53.304;-6.284;2023-04-09T07:48:13;100973.53;;;9.13;91.77
42633;BME280;28261;53.304;-6.284;2023-04-09T07:50:18;100981.88;;;9.21;90.90
42633;BME280;28261;53.304;-6.284;2023-04-09T07:52:22;100976.22;;;9.43;90.70
42633;BME280;28261;53.304;-6.284;2023-04-09T07:54:26;100972.28;;;9.51;89.82
42633;BME280;28261;53.304;-6.284;2023-04-09T07:56:32;100974.97;;;9.65;89.36
42633;BME280;28261;53.304;-6.284;2023-04-09T07:58:36;100971.34;;;9.66;89.02
42633;BME280;28261;53.304;-6.284;2023-04-09T08:00:40;100957.97;;;9.83;89.06
42633;BME280;28261;53.304;-6.284;2023-04-09T08:02:43;100960.91;;;9.93;88.13
42633;BME280;28261;53.304;-6.284;2023-04-09T08:04:48;100959.31;;;10.05;87.70
42633;BME280;28261;53.304;-6.284;2023-04-09T08:06:53;100983.63;;;10.12;87.82
42633;BME280;28261;53.304;-6.284;2023-04-09T08:08:57;100994.81;;;10.31;87.59
42633;BME280;28261;53.304;-6.284;2023-04-09T08:11:00;100993.03;;;10.46;85.93
42633;BME280;28261;53.304;-6.284;2023-04-09T08:13:04;100982.59;;;10.58;85.22
42633;BME280;28261;53.304;-6.284;2023-04-09T08:15:07;100985.06;;;10.61;84.54
42633;BME280;28261;53.304;-6.284;2023-04-09T08:17:11;100985.44;;;10.55;83.79
42633;BME280;28261;53.304;-6.284;2023-04-09T08:19:16;100968.50;;;10.43;84.22
42633;BME280;28261;53.304;-6.284;2023-04-09T08:21:21;100976.84;;;10.37;83.84
42633;BME280;28261;53.304;-6.284;2023-04-09T08:23:25;100969.06;;;10.19;84.61
42633;BME280;28261;53.304;-6.284;2023-04-09T08:25:28;100986.28;;;10.12;85.26
42633;BME280;28261;53.304;-6.284;2023-04-09T08:27:32;100976.44;;;10.14;85.38
42633;BME280;28261;53.304;-6.284;2023-04-09T08:29:37;100976.91;;;10.21;84.90
42633;BME280;28261;53.304;-6.284;2023-04-09T08:31:41;100972.97;;;10.28;84.80
42633;BME280;28261;53.304;-6.284;2023-04-09T08:33:45;100978.81;;;10.33;84.82
42633;BME280;28261;53.304;-6.284;2023-04-09T08:35:48;100979.22;;;10.41;84.10
42633;BME280;28261;53.304;-6.284;2023-04-09T08:37:53;100983.94;;;10.50;84.01
42633;BME280;28261;53.304;-6.284;2023-04-09T08:39:56;100990.47;;;10.59;83.39
42633;BME280;28261;53.304;-6.284;2023-04-09T08:42:00;101000.38;;;10.70;83.36
42633;BME280;28261;53.304;-6.284;2023-04-09T08:44:04;100996.41;;;10.77;82.83
42633;BME280;28261;53.304;-6.284;2023-04-09T08:46:09;101000.56;;;10.81;81.56
42633;BME280;28261;53.304;-6.284;2023-04-09T08:48:14;100996.00;;;10.83;81.89
42633;BME280;28261;53.304;-6.284;2023-04-09T08:50:19;100992.22;;;10.88;81.73
42633;BME280;28261;53.304;-6.284;2023-04-09T08:52:29;100985.03;;;10.90;81.66
42633;BME280;28261;53.304;-6.284;2023-04-09T08:54:35;100998.84;;;10.95;81.35
42633;BME280;28261;53.304;-6.284;2023-04-09T08:56:39;101011.13;;;10.96;80.98
42633;BME280;28261;53.304;-6.284;2023-04-09T08:58:44;100999.59;;;10.97;80.72
42633;BME280;28261;53.304;-6.284;2023-04-09T09:00:51;100991.84;;;10.94;80.88
42633;BME280;28261;53.304;-6.284;2023-04-09T09:03:03;100993.53;;;10.95;80.83
42633;BME280;28261;53.304;-6.284;2023-04-09T09:05:08;100977.91;;;10.90;80.56
42633;BME280;28261;53.304;-6.284;2023-04-09T09:07:13;100978.94;;;10.88;80.50
42633;BME280;28261;53.304;-6.284;2023-04-09T09:09:19;100985.84;;;10.90;80.21
42633;BME280;28261;53.304;-6.284;2023-04-09T09:11:26;100984.16;;;10.89;80.03
42633;BME280;28261;53.304;-6.284;2023-04-09T09:13:31;100975.16;;;10.92;80.37
42633;BME280;28261;53.304;-6.284;2023-04-09T09:15:34;100972.94;;;10.98;79.93
42633;BME280;28261;53.304;-6.284;2023-04-09T09:17:52;100975.31;;;11.03;79.48
42633;BME280;28261;53.304;-6.284;2023-04-09T09:19:56;100968.94;;;11.06;79.56
42633;BME280;28261;53.304;-6.284;2023-04-09T09:22:02;100961.75;;;11.08;79.79
42633;BME280;28261;53.304;-6.284;2023-04-09T09:24:15;100967.72;;;11.11;79.45
42633;BME280;28261;53.304;-6.284;2023-04-09T09:26:21;100965.69;;;11.15;79.52
42633;BME280;28261;53.304;-6.284;2023-04-09T09:28:33;100965.47;;;11.18;79.00
42633;BME280;28261;53.304;-6.284;2023-04-09T09:30:38;100960.09;;;11.20;78.78
42633;BME280;28261;53.304;-6.284;2023-04-09T09:32:43;100969.22;;;11.15;78.73
42633;BME280;28261;53.304;-6.284;2023-04-09T09:34:56;100959.66;;;11.13;78.74
42633;BME280;28261;53.304;-6.284;2023-04-09T09:37:00;100957.53;;;11.18;79.08
42633;BME280;28261;53.304;-6.284;2023-04-09T09:39:04;100952.84;;;11.09;78.27
42633;BME280;28261;53.304;-6.284;2023-04-09T09:41:15;100962.75;;;10.92;79.25
42633;BME280;28261;53.304;-6.284;2023-04-09T09:43:20;100954.47;;;10.97;79.36
42633;BME280;28261;53.304;-6.284;2023-04-09T09:45:26;100957.25;;;10.95;79.51
42633;BME280;28261;53.304;-6.284;2023-04-09T09:47:33;100958.09;;;10.96;79.56
42633;BME280;28261;53.304;-6.284;2023-04-09T09:49:38;100952.59;;;10.99;79.54
42633;BME280;28261;53.304;-6.284;2023-04-09T09:51:42;100947.47;;;10.96;79.77
42633;BME280;28261;53.304;-6.284;2023-04-09T09:53:46;100953.00;;;10.93;79.90
42633;BME280;28261;53.304;-6.284;2023-04-09T09:55:55;100962.09;;;10.89;80.37
42633;BME280;28261;53.304;-6.284;2023-04-09T09:58:01;100959.75;;;10.84;80.40
42633;BME280;28261;53.304;-6.284;2023-04-09T10:00:07;100958.88;;;10.83;80.97
42633;BME280;28261;53.304;-6.284;2023-04-09T10:02:17;100942.03;;;10.84;80.86
42633;BME280;28261;53.304;-6.284;2023-04-09T10:04:23;100943.16;;;10.80;81.05
42633;BME280;28261;53.304;-6.284;2023-04-09T10:06:29;100949.06;;;10.71;81.63
42633;BME280;28261;53.304;-6.284;2023-04-09T10:08:33;100943.03;;;10.69;82.46
42633;BME280;28261;53.304;-6.284;2023-04-09T10:10:40;100946.63;;;10.68;82.68
42633;BME280;28261;53.304;-6.284;2023-04-09T10:12:44;100944.16;;;10.65;83.09
42633;BME280;28261;53.304;-6.284;2023-04-09T10:14:48;100944.91;;;10.67;83.15
42633;BME280;28261;53.304;-6.284;2023-04-09T10:16:53;100927.13;;;10.69;82.63
42633;BME280;28261;53.304;-6.284;2023-04-09T10:18:58;100940.38;;;10.69;82.94
42633;BME280;28261;53.304;-6.284;2023-04-09T10:21:07;100921.50;;;10.74;82.85
42633;BME280;28261;53.304;-6.284;2023-04-09T10:23:17;100912.72;;;10.73;83.15
42633;BME280;28261;53.304;-6.284;2023-04-09T10:25:21;100911.44;;;10.79;82.99
42633;BME280;28261;53.304;-6.284;2023-04-09T10:27:25;100905.63;;;10.87;82.91
42633;BME280;28261;53.304;-6.284;2023-04-09T10:29:29;100908.56;;;10.96;82.32
42633;BME280;28261;53.304;-6.284;2023-04-09T10:31:47;100900.84;;;11.06;82.22
42633;BME280;28261;53.304;-6.284;2023-04-09T10:33:53;100883.88;;;11.09;81.56
42633;BME280;28261;53.304;-6.284;2023-04-09T10:36:10;100878.56;;;11.09;81.53
42633;BME280;28261;53.304;-6.284;2023-04-09T10:38:14;100888.94;;;10.99;81.68
42633;BME280;28261;53.304;-6.284;2023-04-09T10:40:18;100878.50;;;10.96;81.47
42633;BME280;28261;53.304;-6.284;2023-04-09T10:42:28;100870.44;;;10.97;81.88
42633;BME280;28261;53.304;-6.284;2023-04-09T10:44:31;100872.91;;;11.00;81.32
42633;BME280;28261;53.304;-6.284;2023-04-09T10:46:36;100863.91;;;11.03;81.23
42633;BME280;28261;53.304;-6.284;2023-04-09T10:48:41;100852.97;;;11.08;80.47
42633;BME280;28261;53.304;-6.284;2023-04-09T10:50:45;100867.63;;;11.13;80.51
42633;BME280;28261;53.304;-6.284;2023-04-09T10:52:55;100850.00;;;11.12;79.83
42633;BME280;28261;53.304;-6.284;2023-04-09T10:55:01;100846.28;;;11.15;79.95